createdAt,value
2018-07-04T00:00:38.565Z,41.70
2018-07-04T00:03:18.388Z,41.90
2018-07-04T00:05:58.039Z,42.10
2018-07-04T00:08:37.692Z,42.10
2018-07-04T00:16:24.374Z,42.60
2018-07-04T00:19:04.127Z,42.60
2018-07-04T00:21:43.651Z,42.70
2018-07-04T00:24:23.191Z,42.50
2018-07-04T00:27:02.848Z,42.70
2018-07-04T00:29:42.415Z,42.80
2018-07-04T00:32:22.045Z,42.50
2018-07-04T00:35:01.702Z,42.60
2018-07-04T00:37:41.244Z,43.40
2018-07-04T01:28:35.487Z,43.00
2018-07-04T01:31:15.126Z,44.70
2018-07-04T01:33:54.792Z,44.90
2018-07-04T01:36:34.336Z,45.10
2018-07-04T01:39:14.025Z,45.90
2018-07-04T01:41:53.588Z,46.20
2018-07-04T01:44:33.315Z,45.80
2018-07-04T01:47:12.977Z,45.80
2018-07-04T01:49:52.514Z,45.60
2018-07-04T01:52:32.142Z,45.80
2018-07-04T01:55:11.644Z,46.10
2018-07-04T01:57:51.115Z,46.00
2018-07-04T02:00:30.748Z,46.10
2018-07-04T02:03:10.352Z,45.80
2018-07-04T02:05:50.042Z,45.70
2018-07-04T02:08:29.735Z,45.70
2018-07-04T02:11:09.163Z,45.80
2018-07-04T02:13:48.863Z,46.10
2018-07-04T02:16:28.426Z,45.90
2018-07-04T02:19:07.933Z,45.90
2018-07-04T02:21:47.708Z,45.70
2018-07-04T02:24:27.401Z,45.00
2018-07-04T02:27:07.153Z,44.50
2018-07-04T02:29:46.702Z,45.00
2018-07-04T02:32:26.231Z,45.30
2018-07-04T02:35:05.899Z,45.90
2018-07-04T02:37:45.585Z,46.20
2018-07-04T02:42:59.393Z,45.70
2018-07-04T02:45:38.927Z,45.60
2018-07-04T02:48:18.630Z,45.80
2018-07-04T02:50:58.817Z,46.00
2018-07-04T02:53:38.464Z,46.10
2018-07-04T02:56:18.036Z,46.40
2018-07-04T02:58:57.555Z,46.60
2018-07-04T03:01:37.312Z,46.80
2018-07-04T03:04:17.329Z,46.90
2018-07-04T03:06:56.856Z,47.00
2018-07-04T03:09:36.414Z,47.00
2018-07-04T03:12:15.921Z,47.30
2018-07-04T03:14:55.443Z,47.40
2018-07-04T03:17:35.365Z,47.50
2018-07-04T03:20:14.898Z,48.10
2018-07-04T03:25:28.117Z,48.10
2018-07-04T03:28:07.781Z,47.90
2018-07-04T03:30:47.487Z,47.40
2018-07-04T03:33:27.183Z,47.50
2018-07-04T03:36:06.729Z,47.70
2018-07-04T03:38:46.259Z,48.10
2018-07-04T03:41:25.807Z,48.10
2018-07-04T03:44:05.416Z,48.20
2018-07-04T03:46:45.076Z,48.20
2018-07-04T03:49:24.693Z,48.30
2018-07-04T03:52:04.412Z,48.30
2018-07-04T03:54:43.885Z,48.00
2018-07-04T03:57:23.560Z,47.90
2018-07-04T04:00:03.240Z,48.30
2018-07-04T04:02:42.781Z,48.10
2018-07-04T04:05:22.367Z,47.80
2018-07-04T04:08:01.965Z,47.90
2018-07-04T04:10:41.467Z,48.00
2018-07-04T04:13:21.186Z,47.80
2018-07-04T04:16:00.877Z,48.00
2018-07-04T04:18:40.493Z,48.30
2018-07-04T04:21:20.201Z,47.90
2018-07-04T04:23:59.780Z,47.50
2018-07-04T04:26:39.428Z,47.30
2018-07-04T04:29:19.158Z,47.20
2018-07-04T04:31:58.838Z,47.40
2018-07-04T04:34:38.387Z,47.70
2018-07-04T04:39:51.471Z,47.80
2018-07-04T04:42:31.143Z,46.90
2018-07-04T04:45:10.885Z,47.30
2018-07-04T04:47:50.345Z,47.90
2018-07-04T04:50:30.061Z,47.40
2018-07-04T04:53:09.717Z,47.90
2018-07-04T04:55:49.384Z,47.60
2018-07-04T04:58:29.003Z,47.90
2018-07-04T05:01:08.575Z,47.70
2018-07-04T05:03:48.251Z,47.20
2018-07-04T05:06:27.921Z,47.40
2018-07-04T05:09:07.549Z,46.60
2018-07-04T05:11:47.196Z,46.30
2018-07-04T05:14:26.839Z,47.00
2018-07-04T05:17:06.511Z,46.80
2018-07-04T05:19:46.063Z,46.80
2018-07-04T05:22:25.545Z,46.10
2018-07-04T05:25:05.125Z,45.90
2018-07-04T05:27:44.607Z,45.50
2018-07-04T05:30:24.283Z,45.50
2018-07-04T05:33:04.321Z,45.30
2018-07-04T05:35:43.829Z,45.30
2018-07-04T05:38:23.239Z,45.00
2018-07-04T05:43:36.466Z,45.10
2018-07-04T05:46:16.146Z,45.60
2018-07-04T05:48:55.797Z,44.90
2018-07-04T05:51:35.409Z,44.10
2018-07-04T05:54:15.122Z,44.20
2018-07-04T05:56:54.818Z,44.80
2018-07-04T05:59:34.313Z,44.70
2018-07-04T06:02:14.009Z,43.20
2018-07-04T06:07:27.206Z,43.90
2018-07-04T06:10:06.885Z,43.20
2018-07-04T06:12:46.451Z,43.40
2018-07-04T06:15:26.086Z,43.60
2018-07-04T06:18:05.703Z,44.10
2018-07-04T06:20:45.288Z,44.50
2018-07-04T06:23:24.716Z,44.40
2018-07-04T06:26:04.477Z,45.00
2018-07-04T06:28:44.517Z,44.80
2018-07-04T06:31:24.207Z,44.50
2018-07-04T06:34:03.887Z,43.90
2018-07-04T06:41:32.620Z,45.10
2018-07-04T06:43:59.877Z,44.70
2018-07-04T06:46:27.159Z,44.70
2018-07-04T06:48:54.470Z,44.80
2018-07-04T06:51:21.777Z,44.70
2018-07-04T06:53:49.075Z,44.80
2018-07-04T06:58:43.880Z,45.00
2018-07-04T07:01:11.181Z,44.80
2018-07-04T07:03:50.853Z,45.20
2018-07-04T07:06:30.525Z,44.60
2018-07-04T07:09:10.258Z,44.90
2018-07-04T07:11:50.282Z,44.80
2018-07-04T07:14:30.341Z,45.00
2018-07-04T07:17:09.921Z,45.10
2018-07-04T07:22:23.277Z,45.10
2018-07-04T07:27:36.327Z,45.30
2018-07-04T07:30:15.912Z,45.00
2018-07-04T07:32:55.536Z,44.60
2018-07-04T07:35:35.241Z,44.30
2018-07-04T07:38:14.977Z,44.20
2018-07-04T07:43:28.104Z,43.10
2018-07-04T07:46:07.720Z,43.20
2018-07-04T07:48:47.405Z,43.10
2018-07-04T07:51:26.947Z,43.20
2018-07-04T07:56:40.535Z,43.40
2018-07-04T07:59:20.080Z,43.30
2018-07-04T08:01:59.767Z,43.00
2018-07-04T09:26:48.799Z,42.80
2018-07-04T09:29:28.492Z,34.90
2018-07-04T09:32:08.197Z,33.90
2018-07-04T09:34:47.956Z,34.00
2018-07-04T09:37:27.414Z,34.90
2018-07-04T09:40:07.906Z,34.10
2018-07-04T09:42:47.345Z,34.60
2018-07-04T09:45:27.101Z,34.00
2018-07-04T09:48:06.811Z,33.70
2018-07-04T09:50:46.439Z,34.20
2018-07-04T09:53:26.030Z,33.30
2018-07-04T09:56:05.673Z,34.30
2018-07-04T09:58:45.317Z,32.80
2018-07-04T10:01:26.911Z,32.10
2018-07-04T10:04:06.528Z,33.30
2018-07-04T10:06:46.405Z,33.30
2018-07-04T10:09:27.260Z,34.00
2018-07-04T10:12:06.892Z,35.00
2018-07-04T10:14:46.315Z,35.80
2018-07-04T10:17:26.061Z,35.80
2018-07-04T10:20:05.808Z,35.60
2018-07-04T10:22:45.392Z,35.60
2018-07-04T10:27:58.540Z,35.40
2018-07-04T10:30:38.100Z,35.10
2018-07-04T10:33:17.806Z,33.90
2018-07-04T10:41:04.556Z,32.10
2018-07-04T10:43:44.260Z,32.20
2018-07-04T10:46:23.946Z,32.40
2018-07-04T10:49:03.512Z,32.30
2018-07-04T10:51:43.151Z,32.10
2018-07-04T10:54:22.854Z,31.80
2018-07-04T10:57:02.385Z,30.00
2018-07-04T10:59:42.096Z,30.10
2018-07-04T11:02:21.551Z,28.30
2018-07-04T11:05:01.178Z,28.50
2018-07-04T11:07:40.757Z,27.80
2018-07-04T11:10:20.260Z,26.90
2018-07-04T11:12:59.776Z,27.40
2018-07-04T11:15:39.319Z,27.70
2018-07-04T11:18:18.930Z,27.30
2018-07-04T11:20:58.596Z,27.20
2018-07-04T11:26:11.776Z,26.70
2018-07-04T11:28:51.469Z,25.90
2018-07-04T11:31:31.158Z,26.40
2018-07-04T11:34:15.267Z,26.80
2018-07-04T11:36:54.839Z,26.70
2018-07-04T11:39:34.411Z,26.40
2018-07-04T11:42:14.380Z,26.00
2018-07-04T11:44:53.948Z,24.70
2018-07-04T11:47:21.223Z,25.20
2018-07-04T11:49:48.492Z,25.10
2018-07-04T11:52:15.764Z,25.00
2018-07-04T11:54:43.045Z,25.70
2018-07-04T11:57:10.785Z,25.70
2018-07-04T11:59:38.053Z,25.70
2018-07-04T12:02:05.295Z,26.70
2018-07-04T12:04:44.841Z,26.50
2018-07-04T12:07:12.101Z,27.00
2018-07-04T12:09:40.243Z,27.10
2018-07-04T12:12:07.561Z,27.00
2018-07-04T12:17:02.485Z,26.90
2018-07-04T12:19:29.781Z,27.80
2018-07-04T12:21:57.037Z,27.80
2018-07-04T12:24:24.296Z,27.50
2018-07-04T12:26:51.797Z,27.10
2018-07-04T12:29:19.061Z,27.10
2018-07-04T12:31:46.319Z,27.00
2018-07-04T12:34:13.602Z,27.30
2018-07-04T12:36:40.883Z,27.70
2018-07-04T12:39:08.141Z,27.60
2018-07-04T12:41:35.438Z,27.20
2018-07-04T12:44:02.711Z,27.30
2018-07-04T12:46:30.028Z,27.40
2018-07-04T12:49:02.429Z,27.30
2018-07-04T12:51:31.426Z,27.50
2018-07-04T12:54:04.045Z,27.90
2018-07-04T12:56:43.633Z,27.40
2018-07-04T12:59:23.271Z,27.30
2018-07-04T13:02:03.279Z,27.30
2018-07-04T13:04:43.305Z,27.10
2018-07-04T13:07:23.745Z,27.40
2018-07-04T13:10:03.320Z,27.70
2018-07-04T13:13:45.774Z,28.20
2018-07-04T13:16:25.350Z,28.10
2018-07-04T13:19:05.019Z,28.10
2018-07-04T13:21:44.559Z,28.30
2018-07-04T13:24:24.171Z,31.30
2018-07-04T13:29:37.295Z,35.10
2018-07-04T13:32:17.405Z,33.30
2018-07-04T13:34:56.856Z,34.00
2018-07-04T13:40:09.757Z,37.10
2018-07-04T13:42:49.473Z,38.00
2018-07-04T13:45:29.012Z,38.60
2018-07-04T13:48:08.725Z,38.80
2018-07-04T13:50:48.328Z,39.00
2018-07-04T13:53:27.947Z,39.40
2018-07-04T13:56:07.643Z,39.90
2018-07-04T13:58:47.337Z,39.60
2018-07-04T14:01:26.995Z,40.00
2018-07-04T14:04:06.679Z,39.90
2018-07-04T14:06:46.823Z,39.30
2018-07-04T14:09:26.458Z,39.30
2018-07-04T14:12:06.130Z,39.80
2018-07-04T14:14:45.659Z,38.60
2018-07-04T14:17:25.242Z,38.90
2018-07-04T14:20:04.944Z,38.90
2018-07-04T14:22:44.455Z,39.10
2018-07-04T14:25:24.144Z,38.80
2018-07-04T14:28:03.841Z,39.60
2018-07-04T14:30:43.415Z,38.10
2018-07-04T14:33:22.894Z,38.20
2018-07-04T14:36:02.494Z,38.20
2018-07-04T14:38:42.210Z,36.60
2018-07-04T14:41:21.788Z,36.70
2018-07-04T14:44:01.285Z,35.80
2018-07-04T14:46:40.937Z,34.70
2018-07-04T14:49:20.563Z,35.50
2018-07-04T14:52:00.174Z,34.40
2018-07-04T14:54:39.750Z,33.90
2018-07-04T14:57:19.358Z,33.80
2018-07-04T14:59:58.964Z,33.30
2018-07-04T15:02:38.641Z,32.20
2018-07-04T15:05:18.130Z,31.20
2018-07-04T15:07:57.816Z,31.00
2018-07-04T15:15:44.641Z,30.10
2018-07-04T15:18:24.244Z,29.30
2018-07-04T15:21:03.922Z,28.40
2018-07-04T15:23:43.959Z,27.20
2018-07-04T15:26:23.375Z,28.20
2018-07-04T15:29:03.106Z,28.00
2018-07-04T15:31:42.621Z,28.10
2018-07-04T15:36:55.601Z,27.40
2018-07-04T15:39:35.283Z,27.00
2018-07-04T15:42:14.846Z,27.30
2018-07-04T15:44:54.612Z,27.40
2018-07-04T15:47:34.059Z,27.80
2018-07-04T15:50:13.744Z,28.20
2018-07-04T15:52:53.314Z,28.30
2018-07-04T15:55:32.722Z,28.60
2018-07-04T15:58:12.264Z,29.00
2018-07-04T16:00:52.644Z,28.60
2018-07-04T16:03:32.368Z,28.90
2018-07-04T16:06:11.926Z,28.70
2018-07-04T16:11:25.089Z,29.00
2018-07-04T16:14:04.664Z,29.00
2018-07-04T16:16:44.549Z,29.50
2018-07-04T16:19:24.038Z,29.70
2018-07-04T16:22:03.615Z,29.90
2018-07-04T16:24:43.123Z,30.20
2018-07-04T16:27:22.673Z,30.00
2018-07-04T16:30:02.251Z,30.40
2018-07-04T16:32:41.863Z,30.70
2018-07-04T16:35:21.416Z,30.80
2018-07-04T16:38:01.149Z,31.20
2018-07-04T16:40:40.807Z,31.30
2018-07-04T16:43:20.308Z,31.60
2018-07-04T16:45:59.809Z,32.00
2018-07-04T16:51:12.915Z,32.30
2018-07-04T16:53:52.667Z,32.40
2018-07-04T16:56:32.208Z,32.60
2018-07-04T16:59:11.929Z,32.90
2018-07-04T17:01:51.462Z,32.10
2018-07-04T17:04:30.914Z,33.00
2018-07-04T17:07:10.711Z,33.60
2018-07-04T17:12:23.814Z,34.50
2018-07-04T17:15:03.567Z,35.50
2018-07-04T17:17:43.037Z,37.30
2018-07-04T17:20:22.618Z,42.00
2018-07-04T17:23:02.319Z,47.00
2018-07-04T17:25:41.882Z,47.80
2018-07-04T17:28:21.444Z,49.30
2018-07-04T17:31:01.153Z,50.50
2018-07-04T17:33:40.866Z,51.60
2018-07-04T17:36:20.561Z,54.70
2018-07-04T17:39:00.172Z,54.50
2018-07-04T17:41:39.826Z,54.30
2018-07-04T17:44:19.374Z,52.40
2018-07-04T17:46:58.998Z,53.90
2018-07-04T17:49:38.608Z,53.40
2018-07-04T17:52:18.243Z,53.80
2018-07-04T17:54:57.836Z,51.80
2018-07-04T17:57:37.569Z,51.10
2018-07-04T18:02:50.879Z,52.70
2018-07-04T18:05:30.338Z,51.70
2018-07-04T18:08:09.886Z,52.60
2018-07-04T18:10:49.431Z,55.20
2018-07-04T18:13:29.033Z,54.70
2018-07-04T18:16:08.905Z,52.40
2018-07-04T18:18:48.548Z,53.50
2018-07-04T18:21:28.049Z,53.70
2018-07-04T18:24:08.489Z,52.50
2018-07-04T18:26:48.196Z,53.30
2018-07-04T18:29:27.772Z,50.50
2018-07-04T18:32:07.864Z,50.30
2018-07-04T18:34:47.591Z,47.30
2018-07-04T18:37:27.576Z,49.60
2018-07-04T18:40:07.157Z,49.50
2018-07-04T18:42:46.662Z,49.80
2018-07-04T18:45:26.429Z,50.30
2018-07-04T18:48:06.439Z,52.10
2018-07-04T18:50:46.132Z,51.00
2018-07-04T18:53:25.664Z,52.00
2018-07-04T18:56:05.187Z,52.20
2018-07-04T18:58:45.298Z,50.60
2018-07-04T19:01:24.914Z,49.70
2018-07-04T19:04:04.504Z,50.80
2018-07-04T19:06:44.464Z,51.40
2018-07-04T19:09:24.024Z,52.00
2018-07-04T19:12:03.697Z,53.40
2018-07-04T19:17:16.798Z,53.40
2018-07-04T19:19:56.381Z,50.70
2018-07-04T19:22:35.926Z,51.60
2018-07-04T19:25:15.578Z,52.50
2018-07-04T19:27:55.168Z,50.60
2018-07-04T19:30:34.709Z,53.60
2018-07-04T19:33:14.408Z,51.60
2018-07-04T19:35:53.992Z,51.10
2018-07-04T19:38:33.635Z,50.60
2018-07-04T19:41:13.286Z,50.80
2018-07-04T19:43:52.805Z,52.40
2018-07-04T19:46:32.463Z,54.30
2018-07-04T19:49:12.710Z,54.70
2018-07-04T19:51:52.530Z,54.20
2018-07-04T19:54:32.032Z,53.90
2018-07-04T19:57:11.552Z,54.00
2018-07-04T19:59:51.033Z,54.20
2018-07-04T20:02:30.695Z,54.20
2018-07-04T20:05:11.159Z,54.00
2018-07-04T20:07:50.804Z,54.40
2018-07-04T20:10:30.497Z,55.00
2018-07-04T20:13:10.239Z,55.40
2018-07-04T20:15:49.911Z,55.40
2018-07-04T20:18:29.579Z,56.70
2018-07-04T20:21:09.247Z,58.50
2018-07-04T20:23:48.807Z,59.10
2018-07-04T20:26:28.395Z,57.90
2018-07-04T20:29:08.117Z,59.00
2018-07-04T20:31:47.868Z,59.00
2018-07-04T20:34:27.435Z,59.00
2018-07-04T20:37:07.104Z,59.10
2018-07-04T20:39:46.613Z,59.20
2018-07-04T20:42:26.235Z,59.30
2018-07-04T20:45:05.732Z,59.30
2018-07-04T20:47:45.464Z,58.20
2018-07-04T20:50:25.018Z,57.80
2018-07-04T20:53:04.671Z,57.40
2018-07-04T20:55:44.356Z,57.40
2018-07-04T20:58:24.033Z,57.60
2018-07-04T21:01:03.714Z,57.70
2018-07-04T21:03:43.389Z,57.70
2018-07-04T21:06:23.019Z,57.70
2018-07-04T21:09:02.737Z,57.70
2018-07-04T21:11:42.248Z,57.00
2018-07-04T21:14:21.832Z,57.00
2018-07-04T21:19:35.151Z,57.00
2018-07-04T21:22:14.694Z,57.30
2018-07-04T21:24:54.201Z,57.70
2018-07-04T21:27:34.007Z,57.60
2018-07-04T21:30:13.588Z,57.80
2018-07-04T21:32:53.131Z,57.60
2018-07-04T21:35:32.909Z,57.60
2018-07-04T21:38:12.312Z,57.80
2018-07-04T21:40:52.025Z,57.80
2018-07-04T21:43:31.532Z,57.50
2018-07-04T21:46:11.034Z,57.60
2018-07-04T21:48:50.706Z,57.80
2018-07-04T21:51:30.386Z,58.00
2018-07-04T21:54:09.906Z,58.20
2018-07-04T21:56:49.570Z,58.20
2018-07-04T21:59:29.118Z,58.60
2018-07-04T22:02:08.760Z,58.60
2018-07-04T22:04:48.444Z,58.10
2018-07-04T22:07:27.949Z,58.10
2018-07-04T22:10:07.505Z,58.10
2018-07-04T22:12:47.233Z,58.10
2018-07-04T22:15:26.744Z,58.10
2018-07-04T22:18:06.462Z,58.20
2018-07-04T22:20:46.260Z,58.30
2018-07-04T22:23:26.524Z,58.00
2018-07-04T22:26:06.191Z,57.90
2018-07-04T22:28:45.755Z,57.90
2018-07-04T22:31:25.424Z,58.20
2018-07-04T22:34:05.128Z,58.10
2018-07-04T22:36:44.852Z,58.50
2018-07-04T22:39:24.451Z,58.60
2018-07-04T22:42:04.139Z,58.50
2018-07-04T22:44:43.781Z,59.10
2018-07-04T22:47:23.411Z,59.50
2018-07-04T22:50:03.075Z,59.40
2018-07-04T22:52:42.733Z,59.40
2018-07-04T22:55:22.452Z,59.50
2018-07-04T22:58:01.939Z,59.70
2018-07-04T23:00:41.493Z,59.50
2018-07-04T23:03:21.029Z,59.50
2018-07-04T23:06:00.561Z,60.90
2018-07-04T23:08:40.194Z,60.30
2018-07-04T23:11:19.883Z,60.60
2018-07-04T23:16:33.124Z,60.70
2018-07-04T23:19:12.803Z,60.60
2018-07-04T23:21:52.508Z,60.20
2018-07-04T23:24:32.298Z,60.00
2018-07-04T23:27:12.038Z,60.50
2018-07-04T23:29:51.683Z,60.60
2018-07-04T23:32:31.324Z,60.70
2018-07-04T23:35:10.862Z,60.90
2018-07-04T23:37:50.471Z,61.30
2018-07-04T23:40:30.265Z,61.40
2018-07-04T23:43:10.154Z,61.50
2018-07-04T23:45:50.181Z,61.30
2018-07-04T23:48:29.756Z,61.10
2018-07-04T23:51:09.232Z,60.90
2018-07-04T23:53:49.422Z,60.80
2018-07-04T23:56:29.054Z,60.40
2018-07-04T23:59:08.798Z,60.40
